Time,TemperatureF,DewpointF,PressureIn,WindDirection,WindDirectionDegrees,WindSpeedMPH,WindSpeedGustMPH,Humidity,HourlyPrecipIn,Conditions,Clouds,dailyrainin,SolarRadiationWatts/m^2,SoftwareType,DateUTC
2013-01-30 00:00:00,12.5,7.2,30.21,East,90,0.0,2.0,79,0.00,,,-99.99,0,WeatherLink 5.7,2013-01-30 07:00:00,
2013-01-30 00:10:00,12.5,7.2,30.22,East,90,1.0,3.0,79,0.00,,,-99.99,0,WeatherLink 5.7,2013-01-30 07:10:00,
2013-01-30 00:20:00,12.5,7.2,30.23,East,90,1.0,3.0,79,0.00,,,-99.99,0,WeatherLink 5.7,2013-01-30 07:20:00,
2013-01-30 00:25:00,12.5,7.2,30.23,North,-999,0.0,0.0,79,0.00,,,-99.99,0,WeatherLink 5.7,2013-01-30 07:25:00,
2013-01-30 00:35:00,12.3,7.3,30.23,East,90,1.0,2.0,80,0.00,,,-99.99,0,WeatherLink 5.7,2013-01-30 07:35:00,
2013-01-30 00:45:00,12.3,7.3,30.23,East,90,0.0,3.0,80,0.00,,,-99.99,0,WeatherLink 5.7,2013-01-30 07:45:00,
2013-01-30 00:50:00,12.1,7.1,30.23,East,90,1.0,2.0,80,0.00,,,-99.99,0,WeatherLink 5.7,2013-01-30 07:50:00,
2013-01-30 00:55:00,12.0,7.0,30.23,East,90,0.0,1.0,80,0.00,,,-99.99,0,WeatherLink 5.7,2013-01-30 07:55:00,
2013-01-30 01:00:00,12.0,7.0,30.23,East,90,0.0,1.0,80,0.00,,,-99.99,0,WeatherLink 5.7,2013-01-30 08:00:00,
2013-01-30 01:10:00,11.6,6.6,30.23,East,90,0.0,2.0,80,0.00,,,-99.99,0,WeatherLink 5.7,2013-01-30 08:10:00,
2013-01-30 01:15:00,11.6,6.6,30.23,North,-999,0.0,0.0,80,0.00,,,-99.99,0,WeatherLink 5.7,2013-01-30 08:15:00,
2013-01-30 01:20:00,11.4,6.2,30.23,North,-999,0.0,0.0,79,0.00,,,-99.99,0,WeatherLink 5.7,2013-01-30 08:20:00,
2013-01-30 01:30:00,10.9,5.7,30.23,East,90,0.0,2.0,79,0.00,,,-99.99,0,WeatherLink 5.7,2013-01-30 08:30:00,
2013-01-30 01:35:00,10.9,5.7,30.23,East,90,0.0,1.0,79,0.00,,,-99.99,0,WeatherLink 5.7,2013-01-30 08:35:00,
2013-01-30 01:45:00,10.9,5.7,30.23,North,-999,0.0,0.0,79,0.00,,,-99.99,0,WeatherLink 5.7,2013-01-30 08:45:00,
2013-01-30 01:50:00,10.9,5.7,30.25,North,-999,0.0,0.0,79,0.00,,,-99.99,0,WeatherLink 5.7,2013-01-30 08:50:00,
2013-01-30 01:55:00,10.9,5.7,30.25,East,90,0.0,2.0,79,0.00,,,-99.99,0,WeatherLink 5.7,2013-01-30 08:55:00,
2013-01-30 02:00:00,11.1,5.9,30.25,East,90,0.0,2.0,79,0.00,,,-99.99,0,WeatherLink 5.7,2013-01-30 09:00:00,
2013-01-30 02:10:00,11.1,5.9,30.25,East,90,0.0,2.0,79,0.00,,,-99.99,0,WeatherLink 5.7,2013-01-30 09:10:00,
2013-01-30 02:15:00,10.9,5.7,30.25,East,90,0.0,2.0,79,0.00,,,-99.99,0,WeatherLink 5.7,2013-01-30 09:15:00,
2013-01-30 02:20:00,10.9,5.7,30.25,East,90,0.0,2.0,79,0.00,,,-99.99,0,WeatherLink 5.7,2013-01-30 09:20:00,
2013-01-30 02:30:00,10.8,5.6,30.25,North,-999,0.0,0.0,79,0.00,,,-99.99,0,WeatherLink 5.7,2013-01-30 09:30:00,
2013-01-30 02:35:00,10.8,5.6,30.26,East,90,1.0,3.0,79,0.00,,,-99.99,0,WeatherLink 5.7,2013-01-30 09:35:00,
2013-01-30 02:40:00,10.6,5.4,30.26,East,90,1.0,2.0,79,0.00,,,-99.99,0,WeatherLink 5.7,2013-01-30 09:40:00,
2013-01-30 02:50:00,10.6,5.4,30.26,East,90,0.0,2.0,79,0.00,,,-99.99,0,WeatherLink 5.7,2013-01-30 09:50:00,
2013-01-30 02:55:00,10.6,5.4,30.26,North,-999,0.0,0.0,79,0.00,,,-99.99,0,WeatherLink 5.7,2013-01-30 09:55:00,
2013-01-30 03:00:00,10.6,5.4,30.26,East,90,1.0,2.0,79,0.00,,,-99.99,0,WeatherLink 5.7,2013-01-30 10:00:00,
2013-01-30 03:10:00,10.6,5.1,30.26,East,90,1.0,3.0,78,0.00,,,-99.99,0,WeatherLink 5.7,2013-01-30 10:10:00,
2013-01-30 03:15:00,10.6,5.1,30.26,East,90,0.0,2.0,78,0.00,,,-99.99,0,WeatherLink 5.7,2013-01-30 10:15:00,
2013-01-30 03:25:00,10.6,4.8,30.29,ESE,112,0.0,2.0,77,0.00,,,-99.99,0,WeatherLink 5.7,2013-01-30 10:25:00,
2013-01-30 03:30:00,10.8,5.0,30.29,ESE,112,0.0,2.0,77,0.00,,,-99.99,0,WeatherLink 5.7,2013-01-30 10:30:00,
2013-01-30 03:40:00,10.8,5.0,30.30,ESE,112,0.0,1.0,77,0.00,,,-99.99,0,WeatherLink 5.7,2013-01-30 10:40:00,
2013-01-30 03:45:00,10.8,5.0,30.30,North,-999,0.0,0.0,77,0.00,,,-99.99,0,WeatherLink 5.7,2013-01-30 10:45:00,
2013-01-30 03:55:00,10.9,5.1,30.31,North,-999,0.0,0.0,77,0.00,,,-99.99,0,WeatherLink 5.7,2013-01-30 10:55:00,
2013-01-30 04:00:00,10.9,5.4,30.31,North,-999,0.0,0.0,78,0.00,,,-99.99,0,WeatherLink 5.7,2013-01-30 11:00:00,
2013-01-30 04:10:00,11.3,5.8,30.31,North,-999,0.0,0.0,78,0.00,,,-99.99,0,WeatherLink 5.7,2013-01-30 11:10:00,
2013-01-30 04:15:00,11.4,5.9,30.31,ESE,112,0.0,3.0,78,0.00,,,-99.99,0,WeatherLink 5.7,2013-01-30 11:15:00,
2013-01-30 04:20:00,11.6,6.1,30.30,East,90,0.0,3.0,78,0.00,,,-99.99,0,WeatherLink 5.7,2013-01-30 11:20:00,
2013-01-30 04:25:00,11.8,6.3,30.30,North,-999,0.0,0.0,78,0.00,,,-99.99,0,WeatherLink 5.7,2013-01-30 11:25:00,
2013-01-30 04:35:00,11.8,6.3,30.30,East,90,1.0,3.0,78,0.00,,,-99.99,0,WeatherLink 5.7,2013-01-30 11:35:00,
2013-01-30 04:40:00,11.8,6.3,30.30,East,90,0.0,3.0,78,0.00,,,-99.99,0,WeatherLink 5.7,2013-01-30 11:40:00,
2013-01-30 04:50:00,12.0,6.5,30.30,East,90,0.0,2.0,78,0.00,,,-99.99,0,WeatherLink 5.7,2013-01-30 11:50:00,
2013-01-30 04:55:00,12.0,6.5,30.30,East,90,0.0,2.0,78,0.00,,,-99.99,0,WeatherLink 5.7,2013-01-30 11:55:00,
2013-01-30 05:00:00,12.0,6.5,30.30,East,90,1.0,2.0,78,0.00,,,-99.99,0,WeatherLink 5.7,2013-01-30 12:00:00,
2013-01-30 05:10:00,12.3,6.7,30.30,North,-999,0.0,0.0,78,0.00,,,-99.99,0,WeatherLink 5.7,2013-01-30 12:10:00,
2013-01-30 05:15:00,12.3,6.7,30.30,North,-999,0.0,0.0,78,0.00,,,-99.99,0,WeatherLink 5.7,2013-01-30 12:15:00,
2013-01-30 05:25:00,12.3,6.7,30.30,North,-999,0.0,0.0,78,0.00,,,-99.99,0,WeatherLink 5.7,2013-01-30 12:25:00,
2013-01-30 05:30:00,12.5,6.9,30.30,North,-999,0.0,0.0,78,0.00,,,-99.99,0,WeatherLink 5.7,2013-01-30 12:30:00,
2013-01-30 05:40:00,12.5,6.9,30.30,North,-999,0.0,0.0,78,0.00,,,-99.99,0,WeatherLink 5.7,2013-01-30 12:40:00,
2013-01-30 05:45:00,12.6,7.0,30.30,North,-999,0.0,0.0,78,0.00,,,-99.99,0,WeatherLink 5.7,2013-01-30 12:45:00,
2013-01-30 05:55:00,12.6,7.3,30.30,North,-999,0.0,0.0,79,0.00,,,-99.99,0,WeatherLink 5.7,2013-01-30 12:55:00,
2013-01-30 06:00:00,12.6,7.3,30.30,North,-999,0.0,0.0,79,0.00,,,-99.99,0,WeatherLink 5.7,2013-01-30 13:00:00,
2013-01-30 06:10:00,12.6,7.3,30.31,North,-999,0.0,0.0,79,0.00,,,-99.99,0,WeatherLink 5.7,2013-01-30 13:10:00,
2013-01-30 06:20:00,12.8,7.5,30.32,North,-999,0.0,0.0,79,0.00,,,-99.99,0,WeatherLink 5.7,2013-01-30 13:20:00,
2013-01-30 06:25:00,12.8,7.5,30.32,North,-999,0.0,0.0,79,0.00,,,-99.99,0,WeatherLink 5.7,2013-01-30 13:25:00,
2013-01-30 06:35:00,13.0,7.7,30.32,North,-999,0.0,0.0,79,0.00,,,-99.99,0,WeatherLink 5.7,2013-01-30 13:35:00,
2013-01-30 06:40:00,13.2,8.2,30.32,North,-999,0.0,0.0,80,0.00,,,-99.99,0,WeatherLink 5.7,2013-01-30 13:40:00,
2013-01-30 06:45:00,13.2,8.2,30.32,North,-999,0.0,0.0,80,0.00,,,-99.99,0,WeatherLink 5.7,2013-01-30 13:45:00,
2013-01-30 06:55:00,13.3,8.3,30.33,North,-999,0.0,0.0,80,0.00,,,-99.99,0,WeatherLink 5.7,2013-01-30 13:55:00,
2013-01-30 07:00:00,13.3,8.3,30.33,North,-999,0.0,0.0,80,0.00,,,-99.99,0,WeatherLink 5.7,2013-01-30 14:00:00,
2013-01-30 07:10:00,13.5,8.5,30.33,North,-999,0.0,0.0,80,0.00,,,-99.99,0,WeatherLink 5.7,2013-01-30 14:10:00,
2013-01-30 07:15:00,13.7,9.0,30.33,North,-999,0.0,0.0,81,0.00,,,-99.99,0,WeatherLink 5.7,2013-01-30 14:15:00,
2013-01-30 07:25:00,13.8,9.0,30.33,North,-999,0.0,0.0,81,0.00,,,-99.99,0,WeatherLink 5.7,2013-01-30 14:25:00,
2013-01-30 07:30:00,13.8,9.0,30.33,North,-999,0.0,0.0,81,0.00,,,-99.99,3,WeatherLink 5.7,2013-01-30 14:30:00,
2013-01-30 07:35:00,13.8,9.0,30.33,East,90,0.0,2.0,81,0.00,,,-99.99,7,WeatherLink 5.7,2013-01-30 14:35:00,
2013-01-30 07:45:00,14.0,9.2,30.33,East,90,0.0,2.0,81,0.00,,,-99.99,12,WeatherLink 5.7,2013-01-30 14:45:00,
2013-01-30 07:50:00,14.0,9.2,30.34,East,90,0.0,2.0,81,0.00,,,-99.99,12,WeatherLink 5.7,2013-01-30 14:50:00,
2013-01-30 08:00:00,14.1,9.3,30.34,East,90,1.0,3.0,81,0.00,,,-99.99,14,WeatherLink 5.7,2013-01-30 15:00:00,
2013-01-30 08:10:00,14.3,9.5,30.34,East,90,1.0,2.0,81,0.00,,,-99.99,21,WeatherLink 5.7,2013-01-30 15:10:00,
2013-01-30 08:20:00,14.6,9.8,30.35,East,90,1.0,3.0,81,0.00,,,-99.99,24,WeatherLink 5.7,2013-01-30 15:20:00,
2013-01-30 08:25:00,14.8,10.0,30.35,East,90,0.0,2.0,81,0.00,,,-99.99,30,WeatherLink 5.7,2013-01-30 15:25:00,
2013-01-30 08:35:00,15.1,10.3,30.36,ESE,112,0.0,3.0,81,0.00,,,-99.99,39,WeatherLink 5.7,2013-01-30 15:35:00,
2013-01-30 08:40:00,15.3,10.5,30.36,ESE,112,0.0,2.0,81,0.00,,,-99.99,42,WeatherLink 5.7,2013-01-30 15:40:00,
2013-01-30 08:50:00,15.8,11.0,30.35,North,-999,0.0,0.0,81,0.00,,,-99.99,51,WeatherLink 5.7,2013-01-30 15:50:00,
2013-01-30 08:55:00,15.9,11.1,30.35,ESE,112,1.0,2.0,81,0.00,,,-99.99,61,WeatherLink 5.7,2013-01-30 15:55:00,
2013-01-30 09:00:00,16.1,11.0,30.35,North,-999,0.0,0.0,80,0.00,,,-99.99,62,WeatherLink 5.7,2013-01-30 16:00:00,
2013-01-30 09:10:00,16.4,11.3,30.34,North,-999,0.0,0.0,80,0.00,,,-99.99,68,WeatherLink 5.7,2013-01-30 16:10:00,
2013-01-30 09:15:00,16.6,11.5,30.34,ESE,112,0.0,2.0,80,0.00,,,-99.99,67,WeatherLink 5.7,2013-01-30 16:15:00,
2013-01-30 09:20:00,16.6,11.2,30.34,North,-999,0.0,0.0,79,0.00,,,-99.99,65,WeatherLink 5.7,2013-01-30 16:20:00,
2013-01-30 09:30:00,16.9,11.5,30.34,North,-999,0.0,0.0,79,0.00,,,-99.99,65,WeatherLink 5.7,2013-01-30 16:30:00,
2013-01-30 09:35:00,17.2,11.8,30.34,North,-999,0.0,0.0,79,0.00,,,-99.99,70,WeatherLink 5.7,2013-01-30 16:35:00,
2013-01-30 09:45:00,17.5,11.8,30.34,North,-999,0.0,0.0,78,0.00,,,-99.99,67,WeatherLink 5.7,2013-01-30 16:45:00,
2013-01-30 09:50:00,17.5,12.1,30.34,North,-999,0.0,0.0,79,0.00,,,-99.99,61,WeatherLink 5.7,2013-01-30 16:50:00,
2013-01-30 10:00:00,17.7,12.0,30.34,North,-999,0.0,0.0,78,0.00,,,-99.99,59,WeatherLink 5.7,2013-01-30 17:00:00,
2013-01-30 10:10:00,17.8,12.1,30.34,ESE,112,0.0,2.0,78,0.00,,,-99.99,65,WeatherLink 5.7,2013-01-30 17:10:00,
2013-01-30 10:15:00,17.7,12.0,30.34,ESE,112,1.0,2.0,78,0.00,,,-99.99,72,WeatherLink 5.7,2013-01-30 17:15:00,
2013-01-30 10:20:00,18.0,12.6,30.35,ESE,112,1.0,2.0,79,0.00,,,-99.99,71,WeatherLink 5.7,2013-01-30 17:20:00,
2013-01-30 10:30:00,18.5,13.1,30.35,North,-999,0.0,0.0,79,0.00,,,-99.99,70,WeatherLink 5.7,2013-01-30 17:30:00,
2013-01-30 10:35:00,18.8,13.4,30.34,North,-999,0.0,0.0,79,0.00,,,-99.99,74,WeatherLink 5.7,2013-01-30 17:35:00,
2013-01-30 10:45:00,19.2,13.8,30.34,ESE,112,1.0,4.0,79,0.00,,,-99.99,93,WeatherLink 5.7,2013-01-30 17:45:00,
2013-01-30 10:55:00,19.7,14.2,30.34,NW,315,2.0,6.0,79,0.00,,,-99.99,81,WeatherLink 5.7,2013-01-30 17:55:00,
2013-01-30 11:00:00,19.9,14.4,30.34,NNW,337,2.0,4.0,79,0.00,,,-99.99,78,WeatherLink 5.7,2013-01-30 18:00:00,
2013-01-30 11:10:00,19.9,14.7,30.33,North,0,2.0,9.0,80,0.00,,,-99.99,95,WeatherLink 5.7,2013-01-30 18:10:00,
2013-01-30 11:15:00,19.7,14.8,30.33,North,0,4.0,10.0,81,0.00,,,-99.99,85,WeatherLink 5.7,2013-01-30 18:15:00,
2013-01-30 11:20:00,19.6,14.7,30.33,North,0,4.0,13.0,81,0.00,,,-99.99,75,WeatherLink 5.7,2013-01-30 18:20:00,
2013-01-30 11:30:00,19.7,15.1,30.33,North,0,6.0,12.0,82,0.00,,,-99.99,101,WeatherLink 5.7,2013-01-30 18:30:00,
2013-01-30 11:35:00,19.9,15.6,30.33,North,0,5.0,13.0,83,0.00,,,-99.99,126,WeatherLink 5.7,2013-01-30 18:35:00,
2013-01-30 11:45:00,19.9,15.6,30.33,North,0,5.0,16.0,83,0.00,,,-99.99,155,WeatherLink 5.7,2013-01-30 18:45:00,
2013-01-30 11:55:00,19.9,15.6,30.32,North,0,5.0,15.0,83,0.00,,,-99.99,150,WeatherLink 5.7,2013-01-30 18:55:00,
2013-01-30 12:00:00,19.9,15.6,30.32,North,0,6.0,19.0,83,0.00,,,-99.99,133,WeatherLink 5.7,2013-01-30 19:00:00,
2013-01-30 12:10:00,20.0,15.1,30.33,North,0,6.0,13.0,81,0.00,,,-99.99,157,WeatherLink 5.7,2013-01-30 19:10:00,
2013-01-30 12:15:00,20.2,15.3,30.33,North,0,6.0,14.0,81,0.00,,,-99.99,147,WeatherLink 5.7,2013-01-30 19:15:00,
2013-01-30 12:20:00,20.3,15.1,30.32,North,0,7.0,15.0,80,0.00,,,-99.99,149,WeatherLink 5.7,2013-01-30 19:20:00,
2013-01-30 12:25:00,20.3,14.8,30.32,North,0,8.0,20.0,79,0.00,,,-99.99,186,WeatherLink 5.7,2013-01-30 19:25:00,
2013-01-30 12:35:00,21.1,15.3,30.32,NNW,337,8.0,15.0,78,0.00,,,-99.99,282,WeatherLink 5.7,2013-01-30 19:35:00,
2013-01-30 12:40:00,21.3,15.5,30.32,North,0,7.0,15.0,78,0.00,,,-99.99,266,WeatherLink 5.7,2013-01-30 19:40:00,
2013-01-30 12:45:00,21.3,15.5,30.32,NNW,337,6.0,12.0,78,0.00,,,-99.99,272,WeatherLink 5.7,2013-01-30 19:45:00,
2013-01-30 12:55:00,21.6,15.5,30.29,NNW,337,8.0,16.0,77,0.00,,,-99.99,319,WeatherLink 5.7,2013-01-30 19:55:00,
2013-01-30 13:00:00,21.8,15.7,30.29,North,0,8.0,15.0,77,0.00,,,-99.99,336,WeatherLink 5.7,2013-01-30 20:00:00,
2013-01-30 13:10:00,21.6,14.9,30.29,NNW,337,11.0,19.0,75,0.00,,,-99.99,303,WeatherLink 5.7,2013-01-30 20:10:00,
2013-01-30 13:15:00,21.5,14.8,30.29,NNW,337,11.0,17.0,75,0.00,,,-99.99,281,WeatherLink 5.7,2013-01-30 20:15:00,
2013-01-30 13:20:00,21.5,14.5,30.30,NNW,337,11.0,21.0,74,0.00,,,-99.99,282,WeatherLink 5.7,2013-01-30 20:20:00,
2013-01-30 13:30:00,21.6,14.3,30.30,NNW,337,11.0,19.0,73,0.00,,,-99.99,287,WeatherLink 5.7,2013-01-30 20:30:00,
2013-01-30 13:35:00,21.8,14.5,30.30,NNW,337,11.0,19.0,73,0.00,,,-99.99,270,WeatherLink 5.7,2013-01-30 20:35:00,
2013-01-30 13:40:00,21.9,14.9,30.30,NNW,337,10.0,20.0,74,0.00,,,-99.99,246,WeatherLink 5.7,2013-01-30 20:40:00,
2013-01-30 13:50:00,21.9,15.2,30.30,NNW,337,8.0,16.0,75,0.00,,,-99.99,237,WeatherLink 5.7,2013-01-30 20:50:00,
2013-01-30 14:00:00,21.8,15.4,30.30,NNW,337,8.0,16.0,76,0.00,,,-99.99,196,WeatherLink 5.7,2013-01-30 21:00:00,
2013-01-30 14:10:00,21.8,15.4,30.30,NNW,337,9.0,18.0,76,0.00,,,-99.99,242,WeatherLink 5.7,2013-01-30 21:10:00,
2013-01-30 14:15:00,21.9,15.5,30.30,NNW,337,7.0,15.0,76,0.00,,,-99.99,203,WeatherLink 5.7,2013-01-30 21:15:00,
2013-01-30 14:20:00,21.9,15.5,30.30,NNW,337,7.0,17.0,76,0.00,,,-99.99,226,WeatherLink 5.7,2013-01-30 21:20:00,
2013-01-30 14:30:00,22.2,15.5,30.30,North,0,7.0,13.0,75,0.00,,,-99.99,203,WeatherLink 5.7,2013-01-30 21:30:00,
2013-01-30 14:35:00,22.2,15.5,30.29,NNW,337,7.0,13.0,75,0.00,,,-99.99,184,WeatherLink 5.7,2013-01-30 21:35:00,
2013-01-30 14:45:00,22.2,15.2,30.29,NNW,337,11.0,20.0,74,0.00,,,-99.99,132,WeatherLink 5.7,2013-01-30 21:45:00,
2013-01-30 14:50:00,22.2,15.5,30.30,NW,315,10.0,18.0,75,0.00,,,-99.99,110,WeatherLink 5.7,2013-01-30 21:50:00,
2013-01-30 15:00:00,22.1,16.0,30.30,NNW,337,8.0,13.0,77,0.00,,,-99.99,88,WeatherLink 5.7,2013-01-30 22:00:00,
2013-01-30 15:10:00,21.8,16.6,30.30,NNW,337,6.0,12.0,80,0.00,,,-99.99,75,WeatherLink 5.7,2013-01-30 22:10:00,
2013-01-30 15:15:00,21.6,16.7,30.30,NNW,337,6.0,13.0,81,0.00,,,-99.99,78,WeatherLink 5.7,2013-01-30 22:15:00,
2013-01-30 15:20:00,21.8,17.2,30.30,NNW,337,4.0,12.0,82,0.00,,,-99.99,83,WeatherLink 5.7,2013-01-30 22:20:00,
2013-01-30 15:30:00,21.6,17.2,30.30,NNW,337,4.0,11.0,83,0.00,,,-99.99,76,WeatherLink 5.7,2013-01-30 22:30:00,
2013-01-30 15:35:00,21.6,17.2,30.30,North,0,3.0,9.0,83,0.00,,,-99.99,63,WeatherLink 5.7,2013-01-30 22:35:00,
2013-01-30 15:45:00,21.8,17.4,30.30,NNW,337,3.0,14.0,83,0.00,,,-99.99,76,WeatherLink 5.7,2013-01-30 22:45:00,
2013-01-30 15:50:00,21.8,17.4,30.31,NNW,337,3.0,9.0,83,0.00,,,-99.99,68,WeatherLink 5.7,2013-01-30 22:50:00,
2013-01-30 16:00:00,21.9,17.5,30.31,NNW,337,2.0,9.0,83,0.00,,,-99.99,37,WeatherLink 5.7,2013-01-30 23:00:00,
2013-01-30 16:10:00,21.9,17.5,30.31,NNW,337,1.0,6.0,83,0.00,,,-99.99,31,WeatherLink 5.7,2013-01-30 23:10:00,
2013-01-30 16:15:00,21.9,17.5,30.31,NNW,337,3.0,7.0,83,0.00,,,-99.99,26,WeatherLink 5.7,2013-01-30 23:15:00,
2013-01-30 16:20:00,22.1,17.7,30.30,NNW,337,2.0,10.0,83,0.00,,,-99.99,36,WeatherLink 5.7,2013-01-30 23:20:00,
2013-01-30 16:25:00,22.1,17.7,30.30,North,0,3.0,9.0,83,0.00,,,-99.99,39,WeatherLink 5.7,2013-01-30 23:25:00,
2013-01-30 16:30:00,22.2,17.8,30.30,NNW,337,3.0,9.0,83,0.00,,,-99.99,39,WeatherLink 5.7,2013-01-30 23:30:00,
2013-01-30 16:40:00,22.2,17.8,30.30,NNW,337,2.0,6.0,83,0.00,,,-99.99,34,WeatherLink 5.7,2013-01-30 23:40:00,
2013-01-30 16:45:00,22.2,17.8,30.30,NNW,337,3.0,8.0,83,0.00,,,-99.99,26,WeatherLink 5.7,2013-01-30 23:45:00,
2013-01-30 16:50:00,22.4,18.0,30.31,NNW,337,2.0,5.0,83,0.00,,,-99.99,19,WeatherLink 5.7,2013-01-30 23:50:00,
2013-01-30 16:55:00,22.4,18.0,30.31,NNW,337,2.0,6.0,83,0.00,,,-99.99,16,WeatherLink 5.7,2013-01-30 23:55:00,
2013-01-30 17:00:00,22.2,17.8,30.31,NNW,337,3.0,7.0,83,0.00,,,-99.99,14,WeatherLink 5.7,2013-01-31 00:00:00,
2013-01-30 17:10:00,22.4,18.0,30.32,NNW,337,0.0,4.0,83,0.00,,,-99.99,9,WeatherLink 5.7,2013-01-31 00:10:00,
2013-01-30 17:15:00,22.4,18.3,30.32,NW,315,1.0,4.0,84,0.00,,,-99.99,7,WeatherLink 5.7,2013-01-31 00:15:00,
2013-01-30 17:25:00,22.4,18.3,30.32,NW,315,0.0,2.0,84,0.00,,,-99.99,1,WeatherLink 5.7,2013-01-31 00:25:00,
2013-01-30 17:30:00,22.4,18.6,30.32,North,-999,0.0,0.0,85,0.00,,,-99.99,0,WeatherLink 5.7,2013-01-31 00:30:00,
2013-01-30 17:40:00,22.4,18.6,30.33,North,-999,0.0,0.0,85,0.00,,,-99.99,0,WeatherLink 5.7,2013-01-31 00:40:00,
2013-01-30 17:45:00,22.2,18.4,30.33,North,-999,0.0,0.0,85,0.00,,,-99.99,0,WeatherLink 5.7,2013-01-31 00:45:00,
2013-01-30 17:50:00,22.2,18.4,30.33,North,-999,0.0,0.0,85,0.00,,,-99.99,0,WeatherLink 5.7,2013-01-31 00:50:00,
2013-01-30 18:00:00,22.2,18.4,30.33,North,-999,0.0,0.0,85,0.00,,,-99.99,0,WeatherLink 5.7,2013-01-31 01:00:00,
2013-01-30 18:10:00,22.2,18.7,30.33,North,-999,0.0,0.0,86,0.00,,,-99.99,0,WeatherLink 5.7,2013-01-31 01:10:00,
2013-01-30 18:15:00,22.2,18.7,30.33,North,-999,0.0,0.0,86,0.00,,,-99.99,0,WeatherLink 5.7,2013-01-31 01:15:00,
2013-01-30 18:25:00,22.2,18.7,30.34,North,-999,0.0,0.0,86,0.00,,,-99.99,0,WeatherLink 5.7,2013-01-31 01:25:00,
2013-01-30 18:30:00,22.2,18.7,30.34,North,-999,0.0,0.0,86,0.00,,,-99.99,0,WeatherLink 5.7,2013-01-31 01:30:00,
2013-01-30 18:35:00,22.2,18.7,30.34,North,-999,0.0,0.0,86,0.00,,,-99.99,0,WeatherLink 5.7,2013-01-31 01:35:00,
2013-01-30 18:45:00,22.2,18.7,30.34,North,-999,0.0,0.0,86,0.00,,,-99.99,0,WeatherLink 5.7,2013-01-31 01:45:00,
2013-01-30 18:50:00,22.1,18.6,30.34,North,-999,0.0,0.0,86,0.00,,,-99.99,0,WeatherLink 5.7,2013-01-31 01:50:00,
2013-01-30 18:55:00,22.1,18.6,30.34,North,-999,0.0,0.0,86,0.00,,,-99.99,0,WeatherLink 5.7,2013-01-31 01:55:00,
2013-01-30 19:00:00,22.1,18.6,30.34,North,-999,0.0,0.0,86,0.00,,,-99.99,0,WeatherLink 5.7,2013-01-31 02:00:00,
2013-01-30 19:10:00,21.9,18.4,30.34,ENE,67,0.0,2.0,86,0.00,,,-99.99,0,WeatherLink 5.7,2013-01-31 02:10:00,
2013-01-30 19:20:00,21.9,18.4,30.33,North,-999,0.0,0.0,86,0.00,,,-99.99,0,WeatherLink 5.7,2013-01-31 02:20:00,
2013-01-30 19:25:00,21.9,18.4,30.33,North,-999,0.0,0.0,86,0.00,,,-99.99,0,WeatherLink 5.7,2013-01-31 02:25:00,
2013-01-30 19:35:00,21.9,18.4,30.34,North,-999,0.0,0.0,86,0.00,,,-99.99,0,WeatherLink 5.7,2013-01-31 02:35:00,
2013-01-30 19:40:00,21.9,18.4,30.34,North,-999,0.0,0.0,86,0.00,,,-99.99,0,WeatherLink 5.7,2013-01-31 02:40:00,
2013-01-30 19:50:00,21.9,18.4,30.34,North,-999,0.0,0.0,86,0.00,,,-99.99,0,WeatherLink 5.7,2013-01-31 02:50:00,
2013-01-30 19:55:00,21.9,18.4,30.34,North,-999,0.0,0.0,86,0.00,,,-99.99,0,WeatherLink 5.7,2013-01-31 02:55:00,
2013-01-30 20:00:00,21.9,18.4,30.34,ENE,67,0.0,2.0,86,0.00,,,-99.99,0,WeatherLink 5.7,2013-01-31 03:00:00,
2013-01-30 20:10:00,21.9,18.6,30.34,ENE,67,1.0,2.0,87,0.00,,,-99.99,0,WeatherLink 5.7,2013-01-31 03:10:00,
2013-01-30 20:20:00,21.8,18.5,30.33,North,-999,0.0,0.0,87,0.00,,,-99.99,0,WeatherLink 5.7,2013-01-31 03:20:00,
2013-01-30 20:25:00,21.8,18.5,30.33,North,-999,0.0,0.0,87,0.00,,,-99.99,0,WeatherLink 5.7,2013-01-31 03:25:00,
2013-01-30 20:35:00,21.8,18.5,30.33,North,-999,0.0,0.0,87,0.00,,,-99.99,0,WeatherLink 5.7,2013-01-31 03:35:00,
2013-01-30 20:40:00,21.6,18.3,30.33,North,-999,0.0,0.0,87,0.00,,,-99.99,0,WeatherLink 5.7,2013-01-31 03:40:00,
2013-01-30 20:45:00,21.8,18.5,30.33,North,-999,0.0,0.0,87,0.00,,,-99.99,0,WeatherLink 5.7,2013-01-31 03:45:00,
2013-01-30 20:50:00,21.8,18.5,30.33,ENE,67,0.0,1.0,87,0.00,,,-99.99,0,WeatherLink 5.7,2013-01-31 03:50:00,
2013-01-30 20:55:00,21.8,18.5,30.33,ENE,67,0.0,1.0,87,0.00,,,-99.99,0,WeatherLink 5.7,2013-01-31 03:55:00,
2013-01-30 21:00:00,21.8,18.5,30.33,North,-999,0.0,0.0,87,0.00,,,-99.99,0,WeatherLink 5.7,2013-01-31 04:00:00,
2013-01-30 21:10:00,21.8,18.5,30.33,North,-999,0.0,0.0,87,0.00,,,-99.99,0,WeatherLink 5.7,2013-01-31 04:10:00,
2013-01-30 21:15:00,21.8,18.5,30.33,North,-999,0.0,0.0,87,0.00,,,-99.99,0,WeatherLink 5.7,2013-01-31 04:15:00,
2013-01-30 21:20:00,21.8,18.5,30.32,ENE,67,0.0,2.0,87,0.00,,,-99.99,0,WeatherLink 5.7,2013-01-31 04:20:00,
2013-01-30 21:30:00,21.8,18.5,30.32,ENE,67,0.0,1.0,87,0.00,,,-99.99,0,WeatherLink 5.7,2013-01-31 04:30:00,
2013-01-30 21:40:00,21.8,18.5,30.32,ENE,67,0.0,2.0,87,0.00,,,-99.99,0,WeatherLink 5.7,2013-01-31 04:40:00,
2013-01-30 21:45:00,21.9,18.6,30.32,ENE,67,0.0,1.0,87,0.00,,,-99.99,0,WeatherLink 5.7,2013-01-31 04:45:00,
2013-01-30 21:55:00,21.9,18.6,30.32,North,-999,0.0,0.0,87,0.00,,,-99.99,0,WeatherLink 5.7,2013-01-31 04:55:00,
2013-01-30 22:00:00,21.9,18.6,30.32,ENE,67,0.0,2.0,87,0.00,,,-99.99,0,WeatherLink 5.7,2013-01-31 05:00:00,
2013-01-30 22:05:00,21.9,18.6,30.32,ENE,67,0.0,1.0,87,0.00,,,-99.99,0,WeatherLink 5.7,2013-01-31 05:05:00,
2013-01-30 22:15:00,21.9,18.6,30.32,East,90,0.0,3.0,87,0.00,,,-99.99,0,WeatherLink 5.7,2013-01-31 05:15:00,
2013-01-30 22:20:00,21.9,18.6,30.30,East,90,0.0,2.0,87,0.00,,,-99.99,0,WeatherLink 5.7,2013-01-31 05:20:00,
2013-01-30 22:30:00,21.9,18.6,30.30,North,-999,0.0,0.0,87,0.00,,,-99.99,0,WeatherLink 5.7,2013-01-31 05:30:00,
2013-01-30 22:35:00,21.9,18.6,30.30,East,90,0.0,1.0,87,0.00,,,-99.99,0,WeatherLink 5.7,2013-01-31 05:35:00,
2013-01-30 22:45:00,21.9,18.6,30.30,East,90,0.0,3.0,87,0.00,,,-99.99,0,WeatherLink 5.7,2013-01-31 05:45:00,
2013-01-30 22:50:00,21.9,18.4,30.30,East,90,1.0,3.0,86,0.00,,,-99.99,0,WeatherLink 5.7,2013-01-31 05:50:00,
2013-01-30 22:55:00,21.9,18.4,30.30,East,90,0.0,2.0,86,0.00,,,-99.99,0,WeatherLink 5.7,2013-01-31 05:55:00,
2013-01-30 23:00:00,21.8,18.3,30.30,ESE,112,1.0,3.0,86,0.00,,,-99.99,0,WeatherLink 5.7,2013-01-31 06:00:00,
2013-01-30 23:10:00,21.9,18.4,30.30,North,-999,0.0,0.0,86,0.00,,,-99.99,0,WeatherLink 5.7,2013-01-31 06:10:00,
2013-01-30 23:15:00,21.8,18.3,30.30,North,-999,0.0,0.0,86,0.00,,,-99.99,0,WeatherLink 5.7,2013-01-31 06:15:00,
2013-01-30 23:25:00,21.9,18.4,30.30,North,-999,0.0,0.0,86,0.00,,,-99.99,0,WeatherLink 5.7,2013-01-31 06:25:00,
2013-01-30 23:35:00,21.9,18.4,30.31,ESE,112,0.0,2.0,86,0.00,,,-99.99,0,WeatherLink 5.7,2013-01-31 06:35:00,
2013-01-30 23:40:00,21.9,18.4,30.31,North,-999,0.0,0.0,86,0.00,,,-99.99,0,WeatherLink 5.7,2013-01-31 06:40:00,
2013-01-30 23:50:00,21.9,18.4,30.31,North,-999,0.0,0.0,86,0.00,,,-99.99,0,WeatherLink 5.7,2013-01-31 06:50:00,
2013-01-30 23:55:00,21.9,18.4,30.31,ESE,112,0.0,1.0,86,0.00,,,-99.99,0,WeatherLink 5.7,2013-01-31 06:55:00,